Time;durP1;ratioP1;P1;durP2;ratioP2;P2;SDS_P1;SDS_P2;PMS_P1;PMS_P2;Temp;Humidity;BMP_temperature;BMP_pressure;BME280_temperature;BME280_humidity;BME280_pressure;Samples;Min_cycle;Max_cycle;Signal;HPM_P1;HPM_P2
2023/06/28 00:01:24;;;;;;;3.25;1.90;;;;;;;16.73;64.30;99002.09;4941956;28;20118;-81
2023/06/28 00:03:49;;;;;;;7.32;2.05;;;;;;;17.00;63.90;99008.53;4963024;28;20288;-81
2023/06/28 00:06:15;;;;;;;2.20;2.03;;;;;;;16.95;63.58;98995.09;4962338;28;20045;-81
2023/06/28 00:08:40;;;;;;;3.42;1.83;;;;;;;17.03;63.61;98994.50;4931450;28;20416;-81
2023/06/28 00:11:06;;;;;;;2.88;1.73;;;;;;;16.90;64.33;99007.84;4957807;28;20527;-81
2023/06/28 00:13:32;;;;;;;6.47;1.90;;;;;;;16.77;64.23;98984.25;4947584;28;20499;-81
2023/06/28 00:15:57;;;;;;;3.08;2.00;;;;;;;16.70;63.94;98981.09;4947607;28;20035;-81
2023/06/28 00:18:25;;;;;;;5.82;2.30;;;;;;;16.74;64.48;98995.59;4962416;28;20037;-81
2023/06/28 00:20:51;;;;;;;7.38;2.22;;;;;;;16.67;64.09;98995.94;4956631;28;20402;-80
2023/06/28 00:23:16;;;;;;;4.65;2.03;;;;;;;16.73;64.33;98994.78;4957641;28;20027;-81
2023/06/28 00:25:42;;;;;;;26.52;4.88;;;;;;;16.69;64.27;99003.72;4937192;28;20034;-81
2023/06/28 00:28:07;;;;;;;142.05;122.95;;;;;;;16.67;64.50;99013.97;4946893;28;20043;-80
2023/06/28 00:30:33;;;;;;;5.85;1.85;;;;;;;16.74;64.51;99007.19;4943683;28;20034;-80
2023/06/28 00:32:58;;;;;;;6.45;2.05;;;;;;;16.69;64.11;99003.72;4956263;28;20117;-80
2023/06/28 00:35:23;;;;;;;3.97;1.83;;;;;;;16.64;63.94;98993.00;4963954;28;20038;-80
2023/06/28 00:37:49;;;;;;;5.47;2.00;;;;;;;16.68;64.32;99007.53;4957450;28;20027;-80
2023/06/28 00:40:14;;;;;;;3.72;2.30;;;;;;;16.55;64.20;99003.59;4961563;28;20111;-80
2023/06/28 00:42:39;;;;;;;4.85;1.52;;;;;;;16.56;63.90;99007.88;4946759;28;20062;-80
2023/06/28 00:45:05;;;;;;;4.70;2.17;;;;;;;16.54;64.08;99003.84;4951121;28;20035;-81
2023/06/28 00:47:31;;;;;;;6.63;2.05;;;;;;;16.45;64.32;99019.81;4966353;28;20383;-80
2023/06/28 00:49:57;;;;;;;4.32;2.00;;;;;;;16.37;64.49;99013.16;4962014;28;20035;-80
2023/06/28 00:52:23;;;;;;;4.82;1.55;;;;;;;16.39;64.65;99007.47;4960266;28;20522;-80
2023/06/28 00:54:49;;;;;;;5.50;2.67;;;;;;;16.48;64.31;99016.56;4969213;28;20420;-80
2023/06/28 00:57:15;;;;;;;1.80;1.70;;;;;;;16.41;64.58;99011.50;4959878;28;20355;-80
2023/06/28 00:59:41;;;;;;;7.10;2.03;;;;;;;16.34;64.53;99015.56;4955854;28;20043;-80
2023/06/28 01:02:06;;;;;;;5.15;2.28;;;;;;;16.36;64.50;99010.72;4963364;28;20049;-80
2023/06/28 01:04:33;;;;;;;3.85;1.95;;;;;;;16.38;64.62;99020.13;4964431;28;20049;-80
2023/06/28 01:07:00;;;;;;;6.47;2.00;;;;;;;16.21;64.60;99017.03;4954078;28;20030;-80
2023/06/28 01:09:27;;;;;;;4.13;1.70;;;;;;;16.33;64.83;99028.25;4953028;28;20038;-80
2023/06/28 01:11:54;;;;;;;2.67;1.67;;;;;;;16.31;64.35;99030.44;4962641;28;20495;-80
2023/06/28 01:14:22;;;;;;;4.80;1.70;;;;;;;16.20;64.64;99023.50;4965037;28;20035;-81
2023/06/28 01:16:54;;;;;;;3.08;1.73;;;;;;;16.09;64.77;99021.97;4951843;28;20483;-80
2023/06/28 01:19:24;;;;;;;5.03;1.80;;;;;;;16.16;65.22;99030.53;4965690;28;20038;-81
2023/06/28 01:21:53;;;;;;;5.72;2.03;;;;;;;16.22;65.05;99031.31;4962804;28;20248;-80
2023/06/28 01:24:21;;;;;;;4.85;1.92;;;;;;;16.24;64.65;99037.22;4957427;28;20030;-80
2023/06/28 01:26:51;;;;;;;4.53;1.85;;;;;;;16.20;65.12;99039.69;4968923;28;20122;-80
2023/06/28 01:29:24;;;;;;;2.50;2.00;;;;;;;16.17;64.85;99044.81;4965559;28;20403;-81
2023/06/28 01:31:54;;;;;;;5.30;2.45;;;;;;;16.10;65.00;99028.97;4968188;28;20118;-80
2023/06/28 01:34:22;;;;;;;3.47;2.28;;;;;;;16.01;65.49;99035.22;4966499;28;20039;-81
2023/06/28 01:36:49;;;;;;;7.75;2.00;;;;;;;15.96;65.13;99027.19;4970058;28;20054;-80
2023/06/28 01:39:17;;;;;;;8.00;2.08;;;;;;;15.92;65.62;99034.19;4962964;28;20074;-80
2023/06/28 01:41:44;;;;;;;3.47;2.00;;;;;;;15.70;65.61;99023.81;4960629;28;20492;-80
2023/06/28 01:44:09;;;;;;;4.28;1.80;;;;;;;15.77;65.91;99035.06;4959041;28;20495;-80
2023/06/28 01:46:35;;;;;;;3.40;1.92;;;;;;;15.71;65.52;99030.81;4955511;28;20146;-80
2023/06/28 01:49:01;;;;;;;5.15;1.63;;;;;;;15.70;65.56;99032.69;4959673;28;20023;-80
2023/06/28 01:51:27;;;;;;;5.50;1.70;;;;;;;15.72;65.66;99027.84;4960852;28;20154;-80
2023/06/28 01:53:52;;;;;;;7.40;1.90;;;;;;;15.60;65.49;99021.16;4959490;28;20031;-81
2023/06/28 01:56:18;;;;;;;3.88;1.90;;;;;;;15.65;65.99;99032.72;4957042;28;20562;-81
2023/06/28 01:58:43;;;;;;;4.45;2.45;;;;;;;15.74;65.62;99041.84;4956974;28;20496;-80
2023/06/28 02:01:09;;;;;;;3.33;2.30;;;;;;;15.79;65.22;99030.25;4964598;28;20532;-80
2023/06/28 02:03:34;;;;;;;4.15;1.80;;;;;;;15.75;65.55;99037.25;4958146;28;20030;-80
2023/06/28 02:05:59;;;;;;;7.38;3.88;;;;;;;15.63;65.54;99034.91;4961353;28;20022;-80
2023/06/28 02:08:25;;;;;;;9.05;2.05;;;;;;;15.68;65.61;99053.69;4962782;28;20078;-80
2023/06/28 02:10:50;;;;;;;5.97;2.45;;;;;;;15.51;65.88;99030.88;4957051;28;20043;-80
2023/06/28 02:13:15;;;;;;;4.03;1.98;;;;;;;15.51;66.20;99047.03;4964852;28;20038;-80
2023/06/28 02:15:41;;;;;;;5.82;1.80;;;;;;;15.63;66.08;99050.22;4957897;28;20027;-80
2023/06/28 02:18:07;;;;;;;3.25;1.50;;;;;;;15.46;65.88;99033.63;4949556;28;20031;-80
2023/06/28 02:20:33;;;;;;;3.53;2.17;;;;;;;15.48;65.82;99034.97;4967510;28;20050;-80
2023/06/28 02:22:58;;;;;;;7.40;2.30;;;;;;;15.59;65.78;99043.78;4956595;28;20031;-80
2023/06/28 02:25:23;;;;;;;2.47;2.28;;;;;;;15.56;65.91;99041.63;4961802;28;20394;-81
2023/06/28 02:27:49;;;;;;;5.07;2.50;;;;;;;15.60;65.50;99048.88;4949681;28;20034;-80
2023/06/28 02:30:14;;;;;;;3.83;2.10;;;;;;;15.63;65.65;99040.28;4963869;28;20095;-80
2023/06/28 02:32:40;;;;;;;7.05;2.38;;;;;;;15.71;65.36;99049.63;4959791;28;20030;-80
2023/06/28 02:35:05;;;;;;;4.60;1.98;;;;;;;15.69;65.17;99044.53;4956193;28;20583;-81
2023/06/28 02:37:30;;;;;;;3.67;1.83;;;;;;;15.67;65.30;99043.22;4951559;28;20362;-80
2023/06/28 02:39:56;;;;;;;7.43;2.20;;;;;;;15.61;65.15;99041.63;4962866;28;20039;-81
2023/06/28 02:42:22;;;;;;;3.65;1.75;;;;;;;15.55;65.45;99045.44;4956820;28;20059;-80
2023/06/28 02:44:47;;;;;;;2.03;1.80;;;;;;;15.52;65.66;99035.19;4935073;28;20100;-80
2023/06/28 02:47:12;;;;;;;3.25;1.73;;;;;;;15.60;65.53;99050.75;4956780;28;20058;-81
2023/06/28 02:49:38;;;;;;;5.65;1.83;;;;;;;15.41;66.02;99047.06;4963108;28;20034;-81
2023/06/28 02:52:04;;;;;;;1.80;1.65;;;;;;;15.48;65.58;99048.41;4961266;28;20038;-81
2023/06/28 02:54:29;;;;;;;3.58;1.98;;;;;;;15.54;65.51;99043.81;4965644;28;20042;-81
2023/06/28 02:56:54;;;;;;;3.95;1.90;;;;;;;15.47;65.64;99046.78;4958228;28;20085;-81
2023/06/28 02:59:20;;;;;;;4.40;2.03;;;;;;;15.55;65.79;99050.81;4955165;28;20038;-81
2023/06/28 03:01:45;;;;;;;7.05;1.88;;;;;;;15.53;65.38;99051.06;4958309;28;20030;-81
2023/06/28 03:04:12;;;;;;;6.80;1.80;;;;;;;15.45;65.56;99046.25;4930766;28;20035;-81
2023/06/28 03:06:38;;;;;;;8.35;2.38;;;;;;;15.38;65.53;99039.53;4954706;28;20388;-81
2023/06/28 03:09:04;;;;;;;3.47;2.10;;;;;;;15.43;65.39;99053.81;4955182;28;20039;-81
2023/06/28 03:11:29;;;;;;;3.70;1.60;;;;;;;15.39;65.27;99041.97;4958428;28;20407;-80
2023/06/28 03:13:55;;;;;;;4.65;2.20;;;;;;;15.39;65.49;99052.72;4962009;28;20109;-81
2023/06/28 03:16:21;;;;;;;4.68;2.00;;;;;;;15.34;65.55;99052.72;4950608;28;20661;-81
2023/06/28 03:18:47;;;;;;;5.45;1.85;;;;;;;15.30;65.82;99061.59;4941575;28;20418;-81
2023/06/28 03:21:12;;;;;;;5.63;2.28;;;;;;;15.33;65.45;99053.00;4962226;28;20118;-81
2023/06/28 03:23:38;;;;;;;3.13;2.20;;;;;;;15.35;65.77;99058.91;4949832;28;20031;-80
2023/06/28 03:26:03;;;;;;;5.30;2.30;;;;;;;15.30;65.50;99061.59;4948697;28;20050;-81
2023/06/28 03:28:29;;;;;;;4.47;1.60;;;;;;;15.20;66.26;99043.59;4967005;28;20098;-81
2023/06/28 03:30:54;;;;;;;8.63;1.90;;;;;;;15.27;65.99;99054.06;4948573;28;20127;-80
2023/06/28 03:33:20;;;;;;;2.88;1.52;;;;;;;15.29;65.64;99050.03;4943410;28;20054;-81
2023/06/28 03:35:45;;;;;;;5.38;2.05;;;;;;;15.26;66.20;99057.88;4960185;28;20011;-80
2023/06/28 03:38:11;;;;;;;4.68;2.47;;;;;;;15.24;66.13;99050.06;4957434;28;20042;-80
2023/06/28 03:40:36;;;;;;;4.43;2.58;;;;;;;15.23;66.00;99055.72;4961371;28;20047;-81
2023/06/28 03:43:02;;;;;;;3.88;2.28;;;;;;;15.20;66.21;99048.19;4963937;28;20461;-80
2023/06/28 03:45:28;;;;;;;5.60;2.00;;;;;;;15.23;66.09;99047.63;4945845;28;20133;-80
2023/06/28 03:47:54;;;;;;;5.50;2.30;;;;;;;15.25;66.59;99053.53;4953090;28;20074;-80
2023/06/28 03:50:20;;;;;;;2.65;2.20;;;;;;;15.18;66.23;99042.28;4963515;28;20058;-80
2023/06/28 03:52:45;;;;;;;4.47;2.10;;;;;;;15.23;66.31;99048.44;4959724;28;20046;-80
2023/06/28 03:55:10;;;;;;;3.83;2.20;;;;;;;15.29;66.40;99050.03;4961261;28;20126;-80
2023/06/28 03:57:36;;;;;;;4.07;1.85;;;;;;;15.22;66.43;99046.84;4943937;28;20039;-81
2023/06/28 04:00:04;;;;;;;2.38;2.08;;;;;;;15.30;66.33;99053.53;4948932;28;20038;-80
2023/06/28 04:02:29;;;;;;;5.40;2.40;;;;;;;15.04;67.49;99050.13;4956974;28;20038;-80
2023/06/28 04:04:54;;;;;;;4.65;1.98;;;;;;;15.21;67.17;99052.50;4950299;28;20041;-80
2023/06/28 04:07:24;;;;;;;5.35;2.13;;;;;;;15.32;66.70;99046.81;4968567;28;20042;-80
2023/06/28 04:09:52;;;;;;;5.15;2.35;;;;;;;15.20;66.71;99034.75;4950027;28;20050;-79
2023/06/28 04:12:18;;;;;;;3.80;2.15;;;;;;;15.38;66.96;99056.47;4967577;28;20043;-81
2023/06/28 04:14:44;;;;;;;3.30;2.10;;;;;;;15.40;66.63;99051.63;4948047;28;20106;-80
2023/06/28 04:17:13;;;;;;;3.17;1.85;;;;;;;15.49;66.19;99060.78;4949678;28;20039;-79
2023/06/28 04:19:38;;;;;;;4.57;2.20;;;;;;;15.50;67.00;99056.19;4948888;28;20103;-80
2023/06/28 04:22:04;;;;;;;2.97;1.95;;;;;;;15.52;66.27;99057.53;4941760;28;20035;-80
2023/06/28 04:24:29;;;;;;;4.35;2.47;;;;;;;14.94;70.05;99052.81;4962147;28;20114;-80
2023/06/28 04:26:54;;;;;;;3.83;2.72;;;;;;;14.94;70.86;99061.69;4961062;28;20035;-81
2023/06/28 04:29:20;;;;;;;4.22;2.42;;;;;;;14.93;70.59;99065.47;4959176;28;20039;-80
2023/06/28 04:31:45;;;;;;;4.18;2.33;;;;;;;15.53;67.52;99058.34;4959136;28;20031;-81
2023/06/28 04:34:10;;;;;;;4.93;2.05;;;;;;;15.74;66.73;99059.88;4959273;28;20032;-81
2023/06/28 04:36:36;;;;;;;4.13;2.05;;;;;;;15.82;66.65;99050.38;4935174;28;20035;-81
2023/06/28 04:39:03;;;;;;;2.65;1.95;;;;;;;15.88;66.53;99066.22;4933853;28;20460;-82
2023/06/28 04:41:28;;;;;;;5.68;2.50;;;;;;;15.65;69.67;99065.03;4966829;28;20438;-80
2023/06/28 04:43:56;;;;;;;3.97;2.00;;;;;;;15.92;67.60;99064.63;4966827;28;20149;-80
2023/06/28 04:46:28;;;;;;;4.15;1.85;;;;;;;16.01;67.77;99054.06;4957232;28;20038;-80
2023/06/28 04:48:55;;;;;;;3.38;1.83;;;;;;;16.22;66.19;99056.34;4958091;28;20128;-80
2023/06/28 04:51:20;;;;;;;6.20;2.63;;;;;;;16.10;70.13;99055.88;4948133;28;20400;-81
2023/06/28 04:53:46;;;;;;;10.15;2.30;;;;;;;15.70;71.36;99061.50;4958609;28;20046;-80
2023/06/28 04:56:12;;;;;;;8.10;2.58;;;;;;;15.71;72.17;99065.78;4958590;28;20026;-80
2023/06/28 04:58:37;;;;;;;6.80;2.70;;;;;;;15.53;72.81;99067.19;4954441;28;20035;-81
2023/06/28 05:01:07;;;;;;;3.63;3.03;;;;;;;15.63;72.49;99064.50;4952124;28;20085;-81
2023/06/28 05:03:34;;;;;;;6.57;2.88;;;;;;;15.47;71.59;99064.81;4961477;28;20097;-80
2023/06/28 05:06:02;;;;;;;2.97;2.40;;;;;;;15.58;71.75;99066.38;4962246;28;20208;-81
2023/06/28 05:08:27;;;;;;;6.13;2.70;;;;;;;15.72;72.84;99070.91;4968201;28;20093;-80
2023/06/28 05:10:53;;;;;;;5.13;2.60;;;;;;;15.73;72.26;99071.69;4965327;28;20038;-80
2023/06/28 05:13:18;;;;;;;5.43;2.53;;;;;;;15.58;73.48;99058.31;4964913;28;20042;-80
2023/06/28 05:15:44;;;;;;;9.55;2.95;;;;;;;15.71;73.79;99065.78;4966578;28;20031;-80
2023/06/28 05:18:09;;;;;;;3.50;2.28;;;;;;;15.76;73.52;99068.47;4965820;28;20126;-80
2023/06/28 05:20:35;;;;;;;9.05;2.90;;;;;;;15.71;74.04;99060.41;4971553;28;20440;-80
2023/06/28 05:23:15;;;;;;;6.93;3.30;;;;;;;15.74;74.07;99065.25;4964524;28;20034;-80
2023/06/28 05:25:41;;;;;;;3.42;2.85;;;;;;;15.92;72.69;99069.19;4963952;28;20139;-80
2023/06/28 05:28:10;;;;;;;5.18;2.25;;;;;;;16.29;70.80;99078.38;4952336;28;20043;-80
2023/06/28 05:30:36;;;;;;;7.18;3.08;;;;;;;15.99;73.81;99061.63;4967997;28;20033;-80
2023/06/28 05:33:04;;;;;;;8.35;2.67;;;;;;;16.25;72.12;99071.94;4972675;28;20027;-80
2023/06/28 05:35:31;;;;;;;7.85;3.45;;;;;;;16.40;73.48;99071.06;4970845;28;20038;-80
2023/06/28 05:37:57;;;;;;;6.45;3.65;;;;;;;16.53;72.22;99058.84;4955756;28;20047;-80
2023/06/28 05:40:23;;;;;;;5.40;3.33;;;;;;;16.15;72.75;99077.41;4970940;28;20135;-80
2023/06/28 05:42:48;;;;;;;12.00;3.83;;;;;;;16.18;74.27;99078.75;4974612;28;20084;-81
2023/06/28 05:45:13;;;;;;;8.13;3.50;;;;;;;16.07;72.31;99069.94;4956182;28;20035;-80
2023/06/28 05:47:39;;;;;;;7.60;3.58;;;;;;;16.91;69.33;99066.06;4974655;28;20035;-80
2023/06/28 05:50:05;;;;;;;5.60;3.83;;;;;;;17.28;67.76;99065.44;4974408;28;20045;-80
2023/06/28 05:52:30;;;;;;;7.05;3.10;;;;;;;17.78;66.22;99073.75;4973411;28;20038;-80
2023/06/28 05:54:55;;;;;;;4.70;2.70;;;;;;;18.07;64.40;99080.94;4959742;28;20031;-80
2023/06/28 05:57:22;;;;;;;8.07;2.97;;;;;;;18.17;64.61;99073.53;4946493;28;20491;-80
2023/06/28 05:59:47;;;;;;;5.65;3.47;;;;;;;17.87;68.88;99076.63;4961272;28;20023;-80
2023/06/28 06:02:12;;;;;;;7.05;2.83;;;;;;;17.96;65.33;99067.59;4963347;28;20039;-80
2023/06/28 06:04:38;;;;;;;8.32;2.85;;;;;;;17.64;68.47;99061.25;4955325;28;20027;-80
2023/06/28 06:07:03;;;;;;;9.70;3.15;;;;;;;17.43;70.27;99066.06;4934883;29;20042;-80
2023/06/28 06:09:30;;;;;;;6.75;3.53;;;;;;;17.65;70.61;99060.16;4968331;28;20097;-80
2023/06/28 06:11:55;;;;;;;5.80;2.67;;;;;;;18.08;65.84;99058.25;4959396;28;20491;-80
2023/06/28 06:14:21;;;;;;;5.47;2.40;;;;;;;18.19;65.36;99057.81;4972146;28;20129;-80
2023/06/28 06:16:46;;;;;;;6.97;2.72;;;;;;;18.19;65.66;99062.41;4966123;28;20534;-80
2023/06/28 06:19:11;;;;;;;6.53;2.35;;;;;;;18.29;64.51;99054.94;4946399;28;20122;-81
2023/06/28 06:21:37;;;;;;;10.45;2.80;;;;;;;18.37;64.44;99061.59;4961102;28;20039;-80
2023/06/28 06:24:07;;;;;;;7.70;2.67;;;;;;;18.37;64.25;99061.59;4962040;28;20034;-80
2023/06/28 06:26:33;;;;;;;5.85;2.70;;;;;;;18.30;64.68;99063.88;4951539;28;20030;-81
2023/06/28 06:28:58;;;;;;;11.10;2.72;;;;;;;18.18;65.43;99068.91;4970984;28;20030;-81
2023/06/28 06:31:23;;;;;;;5.47;2.53;;;;;;;18.35;64.66;99055.66;4970789;28;20743;-80
2023/06/28 06:33:49;;;;;;;6.00;2.63;;;;;;;18.38;63.84;99057.78;4967447;28;20395;-81
2023/06/28 06:36:14;;;;;;;6.70;2.38;;;;;;;18.22;65.06;99053.69;4962493;28;20081;-80
2023/06/28 06:38:40;;;;;;;3.72;2.80;;;;;;;18.34;63.78;99062.19;4964362;28;20026;-81
2023/06/28 06:41:06;;;;;;;5.57;2.80;;;;;;;18.40;63.51;99056.41;4965960;28;20023;-81
2023/06/28 06:43:33;;;;;;;11.07;3.58;;;;;;;18.29;65.24;99064.94;4955738;28;20088;-80
2023/06/28 06:45:58;;;;;;;8.57;2.85;;;;;;;18.57;64.33;99059.41;4951243;28;20031;-81
2023/06/28 06:48:24;;;;;;;4.43;2.17;;;;;;;18.26;65.38;99055.53;4956296;28;20380;-80
2023/06/28 06:50:49;;;;;;;7.22;2.33;;;;;;;18.47;63.55;99064.16;4949277;29;20031;-80
2023/06/28 06:53:14;;;;;;;3.60;2.40;;;;;;;18.50;63.39;99050.09;4945404;28;20039;-80
2023/06/28 06:55:40;;;;;;;5.63;2.25;;;;;;;18.54;63.10;99051.88;4946539;29;20031;-80
2023/06/28 06:58:05;;;;;;;4.93;2.63;;;;;;;18.61;62.67;99056.91;4960375;28;20035;-80
2023/06/28 07:00:30;;;;;;;7.97;2.38;;;;;;;18.36;65.92;99068.09;4964139;28;20039;-80
2023/06/28 07:02:56;;;;;;;5.75;2.15;;;;;;;18.67;62.14;99056.53;4966442;28;20486;-80
2023/06/28 07:05:21;;;;;;;4.85;2.53;;;;;;;18.34;62.78;99048.66;4954313;28;20089;-80
2023/06/28 07:07:47;;;;;;;6.00;2.55;;;;;;;18.06;63.38;99061.25;4971817;28;20030;-80
2023/06/28 07:10:12;;;;;;;5.68;2.03;;;;;;;18.26;63.13;99058.22;4968681;28;20043;-81
2023/06/28 07:12:37;;;;;;;4.05;1.95;;;;;;;18.66;61.96;99059.53;4964910;28;20518;-80
2023/06/28 07:15:03;;;;;;;6.90;2.22;;;;;;;18.77;61.20;99062.88;4971181;28;20042;-80
2023/06/28 07:17:30;;;;;;;5.28;1.92;;;;;;;18.88;60.72;99059.69;4962724;28;20038;-81
2023/06/28 07:19:56;;;;;;;4.13;1.90;;;;;;;18.85;60.58;99057.56;4956981;28;20066;-80
2023/06/28 07:22:21;;;;;;;2.88;1.38;;;;;;;19.03;60.42;99075.66;4967174;28;20474;-81
2023/06/28 07:24:47;;;;;;;3.42;2.30;;;;;;;18.96;60.42;99077.94;4953167;28;20037;-82
2023/06/28 07:27:12;;;;;;;7.82;2.95;;;;;;;18.92;60.43;99073.41;4969199;28;20422;-80
2023/06/28 07:29:37;;;;;;;5.40;1.65;;;;;;;18.99;61.28;99073.84;4966528;28;20039;-80
2023/06/28 07:32:03;;;;;;;3.53;1.73;;;;;;;18.89;60.45;99074.84;4969664;28;20039;-80
2023/06/28 07:34:28;;;;;;;6.05;2.35;;;;;;;18.49;63.37;99076.31;4970963;28;20038;-80
2023/06/28 07:36:54;;;;;;;5.47;1.73;;;;;;;18.55;61.26;99075.13;4944755;28;20091;-79
2023/06/28 07:39:19;;;;;;;5.53;1.88;;;;;;;19.06;59.85;99066.16;4959552;28;20499;-80
2023/06/28 07:41:44;;;;;;;2.67;1.90;;;;;;;19.17;59.49;99075.69;4936234;29;20027;-80
2023/06/28 07:44:10;;;;;;;8.80;2.20;;;;;;;19.10;59.87;99064.44;4946773;28;20054;-80
2023/06/28 07:46:35;;;;;;;3.85;1.67;;;;;;;19.10;59.47;99069.84;4968183;28;20162;-80
2023/06/28 07:49:00;;;;;;;3.63;1.50;;;;;;;19.20;59.20;99059.66;4960039;28;20134;-80
2023/06/28 07:51:26;;;;;;;4.10;2.03;;;;;;;19.19;58.99;99060.75;4964142;28;20042;-80
2023/06/28 07:53:52;;;;;;;3.75;1.85;;;;;;;19.32;58.63;99059.16;4961098;28;20069;-80
2023/06/28 07:56:19;;;;;;;4.22;1.40;;;;;;;19.31;58.86;99065.66;4945778;28;20097;-80
2023/06/28 07:58:44;;;;;;;7.93;2.05;;;;;;;19.24;60.16;99066.06;4964309;28;20434;-80
2023/06/28 08:01:10;;;;;;;3.22;1.20;;;;;;;19.27;59.08;99064.66;4953549;28;20035;-80
2023/06/28 08:03:35;;;;;;;4.53;1.30;;;;;;;19.39;58.74;99057.72;4960027;28;20027;-80
2023/06/28 08:06:00;;;;;;;2.88;1.30;;;;;;;19.41;58.42;99066.31;4967804;28;20031;-80
2023/06/28 08:08:26;;;;;;;2.95;1.52;;;;;;;19.03;59.57;99051.31;4966095;28;20026;-80
2023/06/28 08:10:52;;;;;;;3.17;1.88;;;;;;;18.88;59.60;99064.28;4961638;28;20038;-82
2023/06/28 08:13:17;;;;;;;3.22;2.03;;;;;;;19.21;59.23;99050.44;4969927;28;20078;-82
2023/06/28 08:15:43;;;;;;;3.88;1.48;;;;;;;19.62;57.96;99057.78;4962090;28;20086;-82
2023/06/28 08:18:09;;;;;;;5.13;1.88;;;;;;;19.82;57.07;99058.16;4964112;28;20426;-79
2023/06/28 08:20:35;;;;;;;3.67;1.65;;;;;;;19.80;56.92;99051.44;4952141;28;20485;-79
2023/06/28 08:23:02;;;;;;;3.40;1.35;;;;;;;19.83;56.83;99057.03;4963570;28;20038;-81
2023/06/28 08:25:27;;;;;;;3.63;1.75;;;;;;;19.78;56.91;99050.94;4969550;28;20395;-79
2023/06/28 08:27:52;;;;;;;3.25;1.40;;;;;;;19.77;56.71;99044.72;4969584;28;20039;-80
2023/06/28 08:30:18;;;;;;;5.45;2.10;;;;;;;19.84;56.55;99055.16;4953657;28;20468;-80
2023/06/28 08:32:45;;;;;;;3.92;1.77;;;;;;;19.70;56.08;99040.84;4967801;28;20099;-80
2023/06/28 08:35:11;;;;;;;3.70;1.23;;;;;;;19.68;56.25;99041.13;4961945;28;20033;-82
2023/06/28 08:37:36;;;;;;;4.30;1.52;;;;;;;19.77;57.01;99052.03;4957343;28;20043;-80
2023/06/28 08:40:05;;;;;;;3.35;1.98;;;;;;;19.82;55.87;99051.94;4969075;28;20031;-80
2023/06/28 08:42:33;;;;;;;6.55;3.10;;;;;;;19.90;56.44;99057.44;4964803;28;20037;-80
2023/06/28 08:45:01;;;;;;;4.03;1.60;;;;;;;19.97;57.13;99062.44;4961459;28;20556;-80
2023/06/28 08:47:31;;;;;;;2.58;1.70;;;;;;;19.89;55.73;99049.63;4969800;28;20039;-80
2023/06/28 08:49:57;;;;;;;3.47;1.67;;;;;;;19.89;56.11;99060.47;4960194;28;20142;-82
2023/06/28 08:52:23;;;;;;;5.95;1.40;;;;;;;19.94;54.90;99041.41;4966848;28;20031;-79
2023/06/28 08:54:50;;;;;;;4.70;1.55;;;;;;;19.97;56.48;99055.13;4964482;28;20474;-80
2023/06/28 08:57:16;;;;;;;2.47;1.45;;;;;;;20.04;55.23;99043.88;4967294;28;20035;-80
2023/06/28 08:59:42;;;;;;;1.42;1.25;;;;;;;20.23;54.57;99051.88;4963879;28;20486;-80
2023/06/28 09:02:08;;;;;;;3.83;1.65;;;;;;;20.27;56.20;99053.66;4956720;28;20031;-79
2023/06/28 09:04:34;;;;;;;3.95;1.98;;;;;;;20.22;55.90;99039.44;4969452;28;20037;-80
2023/06/28 09:07:01;;;;;;;3.42;1.45;;;;;;;20.22;56.29;99055.72;4967220;28;20574;-82
2023/06/28 09:09:28;;;;;;;4.18;1.80;;;;;;;20.36;54.75;99048.31;4961386;28;20031;-81
2023/06/28 09:11:53;;;;;;;2.42;1.48;;;;;;;20.57;53.98;99046.72;4953985;28;20399;-81
2023/06/28 09:14:18;;;;;;;2.03;1.60;;;;;;;20.63;53.83;99049.00;4963499;28;20110;-82
2023/06/28 09:16:44;;;;;;;4.93;1.52;;;;;;;20.67;52.89;99049.19;4972228;28;20399;-82
2023/06/28 09:19:09;;;;;;;5.63;1.60;;;;;;;20.74;52.92;99061.22;4973747;28;20077;-82
2023/06/28 09:21:35;;;;;;;4.55;1.52;;;;;;;20.74;52.79;99057.69;4964451;28;20031;-82
2023/06/28 09:24:00;;;;;;;2.35;1.30;;;;;;;20.61;53.06;99040.38;4962916;28;20039;-82
2023/06/28 09:26:30;;;;;;;4.30;2.00;;;;;;;20.49;54.48;99056.41;4953549;28;20166;-82
2023/06/28 09:28:59;;;;;;;5.80;2.13;;;;;;;20.54;53.81;99048.16;4959437;28;20031;-82
2023/06/28 09:31:25;;;;;;;1.77;1.60;;;;;;;20.68;53.97;99057.03;4965258;28;20039;-82
2023/06/28 09:33:53;;;;;;;2.03;1.50;;;;;;;20.82;53.14;99054.22;4958157;28;20089;-83
2023/06/28 09:36:19;;;;;;;4.93;1.48;;;;;;;20.60;54.07;99057.75;4955988;28;20035;-82
2023/06/28 09:38:44;;;;;;;4.50;2.00;;;;;;;20.72;52.62;99043.66;4969856;28;20020;-82
2023/06/28 09:41:10;;;;;;;1.42;1.33;;;;;;;20.93;52.62;99059.09;4955377;28;20035;-81
2023/06/28 09:43:36;;;;;;;2.50;1.60;;;;;;;21.07;52.32;99040.03;4970754;28;20088;-82
2023/06/28 09:46:12;;;;;;;5.63;1.98;;;;;;;21.05;55.64;99046.88;4962393;28;20178;-81
2023/06/28 09:48:41;;;;;;;4.07;1.45;;;;;;;21.22;52.08;99036.91;4971751;28;20069;-82
2023/06/28 09:51:08;;;;;;;5.55;2.03;;;;;;;21.09;52.92;99045.16;4970022;28;20027;-82
2023/06/28 09:53:34;;;;;;;4.18;1.85;;;;;;;20.77;51.83;99044.31;4968595;28;20026;-82
2023/06/28 09:56:01;;;;;;;3.08;1.42;;;;;;;20.80;52.63;99038.25;4971934;28;20049;-82
2023/06/28 09:58:27;;;;;;;2.47;1.63;;;;;;;21.28;52.20;99032.94;4969488;28;20038;-82
2023/06/28 10:00:53;;;;;;;3.28;1.73;;;;;;;21.35;51.78;99040.63;4953066;28;20018;-81
2023/06/28 10:03:23;;;;;;;4.13;1.75;;;;;;;20.84;52.20;99028.38;4973123;28;20525;-80
2023/06/28 10:05:52;;;;;;;4.28;2.03;;;;;;;21.32;52.19;99028.47;4965209;28;20043;-80
2023/06/28 10:08:18;;;;;;;2.47;1.70;;;;;;;21.46;51.61;99031.09;4970377;28;20038;-81
2023/06/28 10:10:46;;;;;;;5.72;1.90;;;;;;;21.74;51.16;99034.34;4972793;28;20027;-81
2023/06/28 10:13:19;;;;;;;2.72;1.58;;;;;;;21.81;51.40;99035.50;4969795;28;20028;-81
2023/06/28 10:15:44;;;;;;;3.10;1.88;;;;;;;21.86;50.65;99034.56;4960853;28;20075;-81
2023/06/28 10:18:11;;;;;;;5.38;2.28;;;;;;;22.03;50.81;99026.44;4970673;28;20768;-80
2023/06/28 10:20:38;;;;;;;3.30;1.88;;;;;;;22.20;49.96;99038.13;4970834;28;20034;-81
2023/06/28 10:23:05;;;;;;;2.97;1.60;;;;;;;22.23;50.16;99032.06;4966479;28;20578;-81
2023/06/28 10:25:31;;;;;;;4.78;1.52;;;;;;;22.19;50.03;99039.22;4938290;28;20062;-81
2023/06/28 10:27:57;;;;;;;4.28;1.70;;;;;;;21.88;49.84;99030.44;4970864;28;20105;-80
2023/06/28 10:30:24;;;;;;;3.60;1.88;;;;;;;22.32;52.17;99032.06;4969519;28;20057;-81
2023/06/28 10:32:51;;;;;;;2.13;1.70;;;;;;;21.89;51.45;99021.16;4946531;28;20026;-81
2023/06/28 10:35:17;;;;;;;3.65;2.00;;;;;;;22.39;49.21;99021.47;4971555;28;20496;-81
2023/06/28 10:37:42;;;;;;;5.07;2.20;;;;;;;22.69;50.07;99030.59;4965944;28;20074;-81
2023/06/28 10:40:10;;;;;;;2.30;1.65;;;;;;;22.66;49.59;99021.16;4964649;28;20055;-81
2023/06/28 10:42:39;;;;;;;4.20;1.90;;;;;;;22.75;50.43;99029.31;4972759;28;20019;-81
2023/06/28 10:45:09;;;;;;;4.68;2.25;;;;;;;22.84;49.87;99030.09;4958104;28;20035;-81
2023/06/28 10:47:36;;;;;;;2.53;1.50;;;;;;;22.77;49.83;99027.88;4971965;28;20027;-81
2023/06/28 10:50:07;;;;;;;4.65;1.65;;;;;;;23.20;48.46;99027.72;4967117;28;20031;-81
2023/06/28 10:52:34;;;;;;;2.38;1.35;;;;;;;23.39;48.42;99016.47;4972765;28;20031;-81
2023/06/28 10:55:01;;;;;;;3.17;1.90;;;;;;;23.22;48.08;99014.56;4968571;28;20027;-81
2023/06/28 10:57:37;;;;;;;3.03;1.42;;;;;;;23.26;48.77;99017.47;4965383;28;20034;-81
2023/06/28 11:00:05;;;;;;;4.90;1.80;;;;;;;23.26;46.12;99017.47;4963698;28;20138;-81
2023/06/28 11:03:04;;;;;;;5.88;1.52;;;;;;;23.33;47.91;99024.00;4956644;28;20030;-82
2023/06/28 11:05:40;;;;;;;2.47;1.48;;;;;;;23.26;47.63;99003.84;4956281;28;20128;-81
2023/06/28 11:08:13;;;;;;;5.00;1.60;;;;;;;23.36;47.39;99006.22;4949236;28;20127;-82
2023/06/28 11:10:44;;;;;;;2.13;1.52;;;;;;;23.30;46.56;99002.06;4958201;28;20030;-81
2023/06/28 11:13:10;;;;;;;4.30;1.40;;;;;;;23.37;47.43;99019.50;4969255;28;20114;-81
2023/06/28 11:15:42;;;;;;;1.63;1.08;;;;;;;23.56;46.42;99013.66;4966738;28;20053;-81
2023/06/28 11:18:10;;;;;;;5.03;1.65;;;;;;;23.48;45.74;99004.38;4958899;28;20023;-81
2023/06/28 11:20:58;;;;;;;4.15;1.60;;;;;;;23.95;45.62;99015.97;4958822;28;20027;-82
2023/06/28 11:23:37;;;;;;;4.50;1.55;;;;;;;24.31;44.80;99012.66;4965165;28;20027;-81
2023/06/28 11:26:04;;;;;;;2.70;1.13;;;;;;;24.31;45.47;99013.44;4969077;28;20034;-81
2023/06/28 11:28:32;;;;;;;2.03;1.48;;;;;;;24.29;45.36;99010.25;4970406;28;20042;-81
2023/06/28 11:31:15;;;;;;;3.60;1.73;;;;;;;24.20;47.83;99008.75;4966154;28;20085;-82